Time;durP1;ratioP1;P1;durP2;ratioP2;P2;SDS_P1;SDS_P2;PMS_P1;PMS_P2;Temp;Humidity;BMP_temperature;BMP_pressure;BME280_temperature;BME280_humidity;BME280_pressure;Samples;Min_cycle;Max_cycle;Signal;HPM_P1;HPM_P2
2024/03/17 00:01:04;;;;;;;5.13;1.40;;;9.80;95.30;;;;;;5133030;27;20670;-68
2024/03/17 00:03:30;;;;;;;4.23;1.40;;;9.80;95.30;;;;;;5124129;27;20601;-68
2024/03/17 00:05:58;;;;;;;5.37;1.77;;;9.80;95.40;;;;;;5124265;27;20222;-68
2024/03/17 00:08:26;;;;;;;7.20;2.27;;;9.80;95.40;;;;;;5127736;27;20646;-67
2024/03/17 00:10:54;;;;;;;5.77;1.97;;;9.80;95.30;;;;;;5133266;27;20198;-68
2024/03/17 00:13:21;;;;;;;5.13;1.30;;;9.80;95.20;;;;;;5132762;27;20235;-67
2024/03/17 00:15:48;;;;;;;6.33;2.07;;;9.80;95.20;;;;;;5121088;27;20687;-68
2024/03/17 00:18:15;;;;;;;6.07;1.43;;;9.80;95.30;;;;;;5119095;27;20199;-69
2024/03/17 00:20:42;;;;;;;5.00;1.60;;;9.80;95.40;;;;;;5130943;27;20241;-68
2024/03/17 00:23:11;;;;;;;8.13;1.77;;;9.80;95.40;;;;;;5132996;27;20510;-68
2024/03/17 00:25:40;;;;;;;6.20;1.40;;;9.80;95.40;;;;;;5127049;27;20191;-68
2024/03/17 00:28:07;;;;;;;5.87;1.53;;;9.80;95.40;;;;;;5129071;27;20194;-68
2024/03/17 00:30:34;;;;;;;6.00;1.40;;;9.80;95.50;;;;;;5133072;27;20561;-68
2024/03/17 00:33:00;;;;;;;5.23;1.60;;;9.80;95.60;;;;;;5130676;27;20200;-68
2024/03/17 00:35:27;;;;;;;9.07;1.50;;;9.80;95.50;;;;;;5129067;27;20579;-67
2024/03/17 00:37:53;;;;;;;7.90;1.80;;;9.80;95.50;;;;;;5132161;27;20210;-67
2024/03/17 00:40:21;;;;;;;6.10;1.73;;;9.90;95.70;;;;;;5120389;28;20240;-68
2024/03/17 00:42:48;;;;;;;7.70;1.97;;;9.90;95.60;;;;;;5128875;28;20632;-68
2024/03/17 00:45:16;;;;;;;4.43;1.50;;;9.90;95.50;;;;;;5122117;28;20185;-69
2024/03/17 00:47:43;;;;;;;8.43;2.27;;;9.80;95.50;;;;;;5132033;27;20314;-67
2024/03/17 00:50:11;;;;;;;9.57;1.80;;;9.80;95.60;;;;;;5126277;28;20661;-68
2024/03/17 00:52:37;;;;;;;4.10;1.50;;;9.80;95.70;;;;;;5130962;28;20196;-69
2024/03/17 00:55:05;;;;;;;5.57;1.40;;;9.80;95.70;;;;;;5130931;28;20285;-68
2024/03/17 00:57:31;;;;;;;9.10;1.60;;;9.70;95.80;;;;;;5131953;28;20212;-68
2024/03/17 01:00:00;;;;;;;4.50;1.30;;;9.80;95.90;;;;;;5122197;28;20294;-68
2024/03/17 01:02:26;;;;;;;5.97;1.63;;;9.80;95.90;;;;;;5130476;28;20544;-68
2024/03/17 01:04:53;;;;;;;10.87;1.80;;;9.80;95.90;;;;;;5117547;27;20201;-68
2024/03/17 01:07:19;;;;;;;6.00;1.57;;;9.80;95.90;;;;;;5131101;28;20548;-68
2024/03/17 01:09:48;;;;;;;8.50;1.87;;;9.80;96.20;;;;;;5129697;28;20569;-67
2024/03/17 01:12:14;;;;;;;5.63;1.70;;;9.70;96.60;;;;;;5125778;28;20214;-68
2024/03/17 01:14:41;;;;;;;7.80;1.57;;;9.70;96.80;;;;;;5113313;28;20198;-68
2024/03/17 01:17:09;;;;;;;2.33;1.30;;;9.60;97.00;;;;;;5128603;28;20211;-68
2024/03/17 01:19:36;;;;;;;7.77;2.03;;;9.60;97.30;;;;;;5114171;28;20231;-69
2024/03/17 01:22:02;;;;;;;6.93;2.20;;;9.50;97.50;;;;;;5129371;28;20206;-68
2024/03/17 01:24:31;;;;;;;6.03;1.53;;;9.50;97.80;;;;;;5131924;27;20184;-68
2024/03/17 01:26:58;;;;;;;3.47;1.30;;;9.40;97.80;;;;;;5119501;28;20183;-68
2024/03/17 01:29:25;;;;;;;3.27;1.23;;;9.40;98.00;;;;;;5127760;28;20187;-68
2024/03/17 01:31:51;;;;;;;5.73;1.70;;;9.40;98.20;;;;;;5122213;28;20202;-68
2024/03/17 01:34:20;;;;;;;8.03;1.83;;;9.40;98.30;;;;;;5129392;28;20192;-69
2024/03/17 01:36:47;;;;;;;5.67;1.50;;;9.40;98.60;;;;;;5123559;27;20285;-68
2024/03/17 01:39:15;;;;;;;8.33;1.87;;;9.50;98.80;;;;;;5120433;27;20195;-68
2024/03/17 01:41:42;;;;;;;2.83;1.20;;;9.60;99.30;;;;;;5127813;28;20214;-68
2024/03/17 01:44:22;;;;;;;1.30;0.70;;;9.60;98.90;;;;;;5129489;27;20222;-69
2024/03/17 01:46:48;;;;;;;0.83;0.80;;;9.70;98.90;;;;;;5122270;28;20178;-69
2024/03/17 01:49:16;;;;;;;3.33;1.43;;;9.70;99.00;;;;;;5127189;27;20274;-69
2024/03/17 01:51:44;;;;;;;3.03;1.10;;;9.70;99.00;;;;;;5130377;27;20272;-69
2024/03/17 01:54:12;;;;;;;2.27;1.00;;;9.80;99.00;;;;;;5121026;28;20201;-69
2024/03/17 01:56:39;;;;;;;1.90;0.83;;;9.70;98.90;;;;;;5127564;27;20216;-69
2024/03/17 01:59:06;;;;;;;4.13;1.27;;;9.70;98.90;;;;;;5134947;27;20295;-69
2024/03/17 02:01:32;;;;;;;2.90;1.10;;;9.70;98.90;;;;;;5135350;27;20198;-68
2024/03/17 02:04:01;;;;;;;2.30;1.00;;;9.70;98.80;;;;;;5120670;27;20202;-68
2024/03/17 02:06:27;;;;;;;3.63;1.43;;;9.60;98.50;;;;;;5134754;27;20194;-67
2024/03/17 02:08:56;;;;;;;4.00;1.10;;;9.60;98.30;;;;;;5134753;27;20277;-68
2024/03/17 02:11:27;;;;;;;1.83;0.90;;;9.50;98.20;;;;;;5130886;27;20199;-68
2024/03/17 02:13:55;;;;;;;2.60;1.20;;;9.40;97.80;;;;;;5134992;27;20198;-68
2024/03/17 02:16:21;;;;;;;2.70;0.83;;;9.40;97.90;;;;;;5133339;27;20202;-69
2024/03/17 02:18:48;;;;;;;3.80;1.00;;;9.40;97.90;;;;;;5132374;27;20751;-67
2024/03/17 02:21:15;;;;;;;1.80;0.80;;;9.30;98.10;;;;;;5132277;27;20267;-67
2024/03/17 02:23:44;;;;;;;1.33;0.80;;;9.20;98.50;;;;;;5124631;27;20194;-68
2024/03/17 02:26:10;;;;;;;1.07;0.70;;;9.10;98.80;;;;;;5129221;27;20263;-68
2024/03/17 02:28:41;;;;;;;3.63;0.70;;;9.00;99.20;;;;;;5132669;27;20619;-69
2024/03/17 02:31:09;;;;;;;2.10;0.70;;;8.90;99.20;;;;;;5125034;27;20193;-68
2024/03/17 02:33:37;;;;;;;0.60;0.60;;;8.80;99.20;;;;;;5134113;27;20289;-69
2024/03/17 02:36:04;;;;;;;2.47;0.77;;;8.70;99.20;;;;;;5120911;27;20545;-68
2024/03/17 02:41:17;;;;;;;1.30;0.67;;;8.60;99.40;;;;;;5122419;27;20187;-69
2024/03/17 02:43:44;;;;;;;1.00;0.70;;;8.50;99.50;;;;;;5133830;27;20205;-68
2024/03/17 02:46:12;;;;;;;1.90;0.80;;;8.50;99.60;;;;;;5126480;27;20222;-68
2024/03/17 02:48:44;;;;;;;1.60;0.80;;;8.40;99.70;;;;;;5130418;27;20203;-68
2024/03/17 02:51:12;;;;;;;1.47;0.70;;;8.40;99.70;;;;;;5125849;27;20570;-69
2024/03/17 02:53:40;;;;;;;1.57;0.67;;;8.40;99.70;;;;;;5122134;27;20369;-68
2024/03/17 02:56:07;;;;;;;2.27;0.80;;;8.40;99.70;;;;;;5134950;27;20201;-68
2024/03/17 02:58:37;;;;;;;1.43;0.70;;;8.30;99.40;;;;;;5120446;27;20220;-68
2024/03/17 03:01:04;;;;;;;0.60;0.60;;;8.30;99.30;;;;;;5133858;27;20203;-68
2024/03/17 03:03:31;;;;;;;0.60;0.50;;;8.30;99.30;;;;;;5130232;27;20636;-68
2024/03/17 03:06:00;;;;;;;2.10;0.53;;;8.30;99.30;;;;;;5122136;27;20251;-68
2024/03/17 03:08:27;;;;;;;1.23;0.90;;;8.40;99.20;;;;;;5134011;27;20200;-68
2024/03/17 03:10:54;;;;;;;1.33;0.60;;;8.40;99.20;;;;;;5122425;27;20194;-69
2024/03/17 03:13:22;;;;;;;0.60;0.60;;;8.50;99.10;;;;;;5131255;27;20588;-69
2024/03/17 03:15:50;;;;;;;1.77;0.70;;;8.50;99.00;;;;;;5131678;27;20268;-68
2024/03/17 03:18:17;;;;;;;1.27;0.70;;;8.50;98.60;;;;;;5130131;27;20209;-69
2024/03/17 03:20:44;;;;;;;1.10;0.70;;;8.50;98.40;;;;;;5128215;27;20276;-68
2024/03/17 03:23:11;;;;;;;2.23;0.70;;;8.40;98.20;;;;;;5122983;27;20499;-68
2024/03/17 03:25:38;;;;;;;0.93;0.60;;;8.30;97.70;;;;;;5131696;27;20255;-68
2024/03/17 03:28:06;;;;;;;2.23;1.00;;;8.30;97.80;;;;;;5128297;27;20533;-68
2024/03/17 03:30:36;;;;;;;0.87;0.50;;;8.20;97.70;;;;;;5122364;27;20204;-68
2024/03/17 03:33:06;;;;;;;0.60;0.60;;;8.20;97.70;;;;;;5128303;27;20219;-69
2024/03/17 03:35:33;;;;;;;2.13;0.70;;;8.20;97.70;;;;;;5131549;27;20561;-68
2024/03/17 03:38:00;;;;;;;2.90;0.90;;;8.20;97.60;;;;;;5125577;27;20200;-67
2024/03/17 03:40:27;;;;;;;1.37;0.57;;;8.10;97.60;;;;;;5120934;27;20275;-68
2024/03/17 03:42:54;;;;;;;1.70;0.80;;;8.10;97.60;;;;;;5120333;27;20205;-68
2024/03/17 03:45:21;;;;;;;1.73;0.70;;;8.10;97.50;;;;;;5125406;27;20220;-68
2024/03/17 03:47:49;;;;;;;0.80;0.50;;;8.00;97.40;;;;;;5123196;27;20329;-68
2024/03/17 03:50:21;;;;;;;1.07;0.70;;;8.00;97.50;;;;;;5118247;27;20574;-68
2024/03/17 03:52:49;;;;;;;0.60;0.60;;;8.00;97.60;;;;;;5133774;27;20252;-68
2024/03/17 03:55:17;;;;;;;1.07;0.80;;;8.00;97.80;;;;;;5131876;27;20256;-68
2024/03/17 03:57:46;;;;;;;0.70;0.60;;;8.00;97.80;;;;;;5124232;27;20274;-68
2024/03/17 04:00:14;;;;;;;2.73;0.80;;;8.00;97.90;;;;;;5131959;27;20206;-67
2024/03/17 04:02:41;;;;;;;0.67;0.67;;;8.00;97.90;;;;;;5133033;27;20722;-68
2024/03/17 04:05:09;;;;;;;2.17;0.73;;;8.00;97.90;;;;;;5131142;27;20650;-68
2024/03/17 04:07:37;;;;;;;1.23;0.70;;;7.90;97.90;;;;;;5133560;27;20206;-68
2024/03/17 04:10:05;;;;;;;1.50;0.60;;;7.90;97.90;;;;;;5118071;27;20246;-68
2024/03/17 04:12:32;;;;;;;0.60;0.60;;;7.80;98.00;;;;;;5124044;27;20298;-68
2024/03/17 04:15:00;;;;;;;2.50;0.77;;;7.90;98.10;;;;;;5131102;27;20193;-68
2024/03/17 04:17:27;;;;;;;1.03;0.63;;;7.90;98.10;;;;;;5132828;27;20191;-68
2024/03/17 04:19:55;;;;;;;1.07;0.70;;;7.90;98.20;;;;;;5120063;27;20318;-68
2024/03/17 04:22:23;;;;;;;1.10;0.57;;;7.90;98.20;;;;;;5131838;27;20207;-68
2024/03/17 04:24:54;;;;;;;0.60;0.60;;;7.80;98.30;;;;;;5131999;27;20221;-68
2024/03/17 04:27:21;;;;;;;1.90;0.80;;;7.80;98.50;;;;;;5123953;27;20205;-68
2024/03/17 04:29:48;;;;;;;1.13;0.90;;;7.80;98.60;;;;;;5130419;27;20828;-68
2024/03/17 04:32:15;;;;;;;1.47;0.80;;;7.80;98.80;;;;;;5132897;27;20222;-68
2024/03/17 04:34:44;;;;;;;0.70;0.70;;;7.80;98.90;;;;;;5130002;27;20289;-68
2024/03/17 04:37:12;;;;;;;1.03;0.70;;;7.80;98.90;;;;;;5124589;27;20190;-68
2024/03/17 04:39:39;;;;;;;1.03;0.63;;;7.80;99.10;;;;;;5126160;27;20278;-67
2024/03/17 04:42:07;;;;;;;1.60;0.70;;;7.80;99.20;;;;;;5131919;27;20248;-67
2024/03/17 04:44:34;;;;;;;1.13;0.70;;;7.90;99.30;;;;;;5132058;28;20658;-68
2024/03/17 04:47:02;;;;;;;1.43;0.90;;;7.80;99.30;;;;;;5133344;27;20191;-68
2024/03/17 04:49:29;;;;;;;0.70;0.70;;;7.80;99.50;;;;;;5125717;27;20645;-68
2024/03/17 04:51:56;;;;;;;0.70;0.70;;;7.80;99.60;;;;;;5127229;28;20191;-68
2024/03/17 04:54:23;;;;;;;0.60;0.60;;;7.70;99.70;;;;;;5127074;28;20286;-68
2024/03/17 04:56:50;;;;;;;1.00;0.87;;;7.70;99.80;;;;;;5127566;28;20236;-68
2024/03/17 04:59:19;;;;;;;0.63;0.60;;;7.80;99.90;;;;;;5126741;28;20223;-68
2024/03/17 05:01:46;;;;;;;0.70;0.70;;;7.70;99.90;;;;;;5133115;27;20189;-68
2024/03/17 05:04:13;;;;;;;1.70;0.60;;;7.70;99.90;;;;;;5127899;27;20605;-68
2024/03/17 05:06:41;;;;;;;0.70;0.70;;;7.70;99.90;;;;;;5131001;28;20531;-68
2024/03/17 05:09:08;;;;;;;0.73;0.57;;;7.70;99.90;;;;;;5131997;28;20769;-68
2024/03/17 05:11:37;;;;;;;1.60;0.80;;;7.80;99.90;;;;;;5129893;28;20556;-68
2024/03/17 05:14:05;;;;;;;0.70;0.70;;;7.70;99.90;;;;;;5121350;28;20193;-68
2024/03/17 05:16:33;;;;;;;0.70;0.70;;;7.70;99.90;;;;;;5128826;28;20553;-68
2024/03/17 05:19:00;;;;;;;0.70;0.70;;;7.70;99.90;;;;;;5130530;28;20184;-69
2024/03/17 05:21:30;;;;;;;0.60;0.60;;;7.70;99.90;;;;;;5130472;27;20253;-68
2024/03/17 05:23:57;;;;;;;0.70;0.70;;;7.70;99.90;;;;;;5127565;27;20195;-68
2024/03/17 05:26:25;;;;;;;0.80;0.70;;;7.70;99.90;;;;;;5124283;27;20578;-69
2024/03/17 05:28:53;;;;;;;1.50;0.90;;;7.60;99.90;;;;;;5129335;28;20219;-68
2024/03/17 05:31:22;;;;;;;1.27;0.90;;;7.60;99.90;;;;;;5120238;27;20241;-69
2024/03/17 05:33:51;;;;;;;2.27;0.70;;;7.60;99.90;;;;;;5125165;27;20651;-69
2024/03/17 05:36:20;;;;;;;0.60;0.60;;;7.60;99.90;;;;;;5126470;27;20592;-69
2024/03/17 05:38:47;;;;;;;0.70;0.70;;;7.70;99.90;;;;;;5136081;27;20236;-69
2024/03/17 05:41:15;;;;;;;1.43;0.80;;;7.70;99.90;;;;;;5135099;27;20191;-69
2024/03/17 05:43:42;;;;;;;0.93;0.60;;;7.70;99.90;;;;;;5135743;27;20275;-69
2024/03/17 05:46:10;;;;;;;0.60;0.60;;;7.70;99.90;;;;;;5129277;27;20673;-69
2024/03/17 05:48:38;;;;;;;1.13;0.60;;;7.70;99.90;;;;;;5126054;27;20678;-69
2024/03/17 05:51:08;;;;;;;0.57;0.57;;;7.70;99.90;;;;;;5131286;27;20230;-68
2024/03/17 05:53:35;;;;;;;0.70;0.70;;;7.70;99.90;;;;;;5131330;27;20183;-69
2024/03/17 05:56:03;;;;;;;0.57;0.57;;;7.70;99.90;;;;;;5135180;27;20585;-69
2024/03/17 05:58:30;;;;;;;0.83;0.60;;;7.70;99.90;;;;;;5129839;27;20287;-68
2024/03/17 06:00:58;;;;;;;0.87;0.60;;;7.70;99.90;;;;;;5129636;27;20755;-69
2024/03/17 06:03:25;;;;;;;0.60;0.60;;;7.70;99.90;;;;;;5127327;27;20545;-69
2024/03/17 06:05:53;;;;;;;0.70;0.60;;;7.70;99.90;;;;;;5129222;27;20287;-69
2024/03/17 06:08:22;;;;;;;0.70;0.70;;;7.70;99.90;;;;;;5135476;27;20252;-69
2024/03/17 06:10:50;;;;;;;0.93;0.73;;;7.80;99.90;;;;;;5135346;27;20187;-69
2024/03/17 06:13:18;;;;;;;0.50;0.50;;;7.80;99.90;;;;;;5134174;27;20215;-69
2024/03/17 06:15:47;;;;;;;0.50;0.50;;;7.70;99.90;;;;;;5134394;27;20191;-69
2024/03/17 06:18:16;;;;;;;0.40;0.40;;;7.60;99.90;;;;;;5123656;27;20276;-68
2024/03/17 06:20:45;;;;;;;0.60;0.40;;;7.60;99.90;;;;;;5133314;27;20276;-68
2024/03/17 06:23:13;;;;;;;0.40;0.40;;;7.50;99.90;;;;;;5117099;27;20608;-68
2024/03/17 06:25:43;;;;;;;0.40;0.40;;;7.50;99.90;;;;;;5127256;27;20918;-68
2024/03/17 06:28:13;;;;;;;0.70;0.70;;;7.50;99.90;;;;;;5126329;27;20203;-68
2024/03/17 06:30:40;;;;;;;0.60;0.30;;;7.50;99.90;;;;;;5127058;27;20225;-68
2024/03/17 06:33:08;;;;;;;0.60;0.60;;;7.50;99.90;;;;;;5133612;27;20207;-68
2024/03/17 06:35:37;;;;;;;0.97;0.50;;;7.50;99.90;;;;;;5131466;27;20298;-67
2024/03/17 06:38:05;;;;;;;0.47;0.30;;;7.50;99.90;;;;;;5133887;27;20183;-68
2024/03/17 06:40:32;;;;;;;0.70;0.70;;;7.50;99.90;;;;;;5129158;27;20245;-68
2024/03/17 06:43:00;;;;;;;0.50;0.50;;;7.40;99.90;;;;;;5126043;27;20195;-68
2024/03/17 06:45:27;;;;;;;0.47;0.47;;;7.40;99.90;;;;;;5134126;27;20217;-68
2024/03/17 06:47:55;;;;;;;0.40;0.40;;;7.40;99.90;;;;;;5131127;27;21115;-68
2024/03/17 06:50:22;;;;;;;1.27;0.70;;;7.40;99.90;;;;;;5128707;27;20715;-68
2024/03/17 06:52:49;;;;;;;0.90;0.40;;;7.40;99.90;;;;;;5124430;27;20199;-68
2024/03/17 06:55:17;;;;;;;0.30;0.30;;;7.40;99.90;;;;;;5131838;27;20211;-68
2024/03/17 06:57:46;;;;;;;0.50;0.50;;;7.40;99.90;;;;;;5130137;27;20743;-68
2024/03/17 07:00:16;;;;;;;0.63;0.50;;;7.40;99.90;;;;;;5121097;27;20204;-68
2024/03/17 07:02:45;;;;;;;0.60;0.60;;;7.40;99.90;;;;;;5130853;27;20650;-68
2024/03/17 07:05:15;;;;;;;0.40;0.40;;;7.40;99.90;;;;;;5125329;27;20235;-68
2024/03/17 07:07:42;;;;;;;0.50;0.50;;;7.40;99.90;;;;;;5132044;27;20200;-68
2024/03/17 07:10:11;;;;;;;0.40;0.40;;;7.50;99.90;;;;;;5126850;27;20260;-68
2024/03/17 07:12:38;;;;;;;0.90;0.50;;;7.50;99.90;;;;;;5130947;27;20240;-68
2024/03/17 07:15:06;;;;;;;0.50;0.50;;;7.50;99.90;;;;;;5133632;27;20721;-68
2024/03/17 07:17:34;;;;;;;0.87;0.30;;;7.50;99.90;;;;;;5132096;27;20191;-68
2024/03/17 07:20:03;;;;;;;1.80;0.50;;;7.50;99.90;;;;;;5132058;27;20342;-68
2024/03/17 07:22:30;;;;;;;0.50;0.50;;;7.50;99.90;;;;;;5134258;27;20319;-68
2024/03/17 07:25:00;;;;;;;1.03;0.70;;;7.60;99.90;;;;;;5131627;27;20669;-68
2024/03/17 07:27:27;;;;;;;1.03;0.53;;;7.60;99.90;;;;;;5129025;27;20639;-68
2024/03/17 07:29:55;;;;;;;0.83;0.60;;;7.50;99.90;;;;;;5128518;27;20221;-68
2024/03/17 07:32:23;;;;;;;0.60;0.50;;;7.50;99.90;;;;;;5131347;27;20662;-68
2024/03/17 07:34:51;;;;;;;0.53;0.50;;;7.40;99.90;;;;;;5128234;27;20197;-68
2024/03/17 07:37:19;;;;;;;0.43;0.43;;;7.30;99.90;;;;;;5129717;27;20194;-68
2024/03/17 07:39:49;;;;;;;0.93;0.60;;;7.20;99.90;;;;;;5133076;27;20273;-69
2024/03/17 07:42:16;;;;;;;1.10;0.70;;;7.20;99.90;;;;;;5133323;27;20191;-68
2024/03/17 07:44:45;;;;;;;1.33;1.07;;;7.20;99.90;;;;;;5133562;27;20319;-69
2024/03/17 07:47:12;;;;;;;1.60;0.80;;;7.30;99.90;;;;;;5127809;27;20690;-68
2024/03/17 07:49:39;;;;;;;0.90;0.70;;;7.30;99.90;;;;;;5118950;27;20307;-68
2024/03/17 07:52:08;;;;;;;0.70;0.70;;;7.30;99.90;;;;;;5133874;27;20207;-68
2024/03/17 07:54:37;;;;;;;0.93;0.63;;;7.40;99.90;;;;;;5131540;27;20206;-68
2024/03/17 07:57:04;;;;;;;2.13;0.70;;;7.40;99.90;;;;;;5133295;27;20691;-68
2024/03/17 07:59:31;;;;;;;0.83;0.70;;;7.30;99.90;;;;;;5128150;27;20187;-67
2024/03/17 08:01:58;;;;;;;2.50;0.80;;;7.30;99.90;;;;;;5128008;27;20196;-68
2024/03/17 08:04:25;;;;;;;5.03;1.00;;;7.20;99.90;;;;;;5122184;27;20227;-68
2024/03/17 08:06:52;;;;;;;1.30;0.67;;;7.10;99.90;;;;;;5128925;27;20628;-68
2024/03/17 08:09:22;;;;;;;0.77;0.77;;;7.10;99.90;;;;;;5130775;27;20293;-68
2024/03/17 08:11:49;;;;;;;1.63;0.50;;;7.10;99.90;;;;;;5124110;27;20187;-67
2024/03/17 08:14:16;;;;;;;0.83;0.60;;;7.10;99.90;;;;;;5124230;27;20234;-68
2024/03/17 08:16:43;;;;;;;1.70;0.73;;;7.10;99.90;;;;;;5133083;27;20635;-69
2024/03/17 08:19:10;;;;;;;0.57;0.57;;;7.20;99.90;;;;;;5128674;27;20251;-68
2024/03/17 08:21:37;;;;;;;0.50;0.50;;;7.30;99.90;;;;;;5128681;27;20202;-68
2024/03/17 08:24:05;;;;;;;0.60;0.47;;;7.30;99.90;;;;;;5131405;27;20662;-68
2024/03/17 08:26:34;;;;;;;0.70;0.63;;;7.40;99.90;;;;;;5132647;27;20195;-68
2024/03/17 08:29:01;;;;;;;0.70;0.70;;;7.40;99.90;;;;;;5128929;27;20204;-68
2024/03/17 08:31:28;;;;;;;0.50;0.50;;;7.50;99.90;;;;;;5125196;27;20561;-67
2024/03/17 08:33:55;;;;;;;0.60;0.60;;;7.50;99.90;;;;;;5118277;27;20186;-67
2024/03/17 08:36:22;;;;;;;2.83;0.70;;;7.50;99.90;;;;;;5119446;27;20193;-67
2024/03/17 08:38:50;;;;;;;1.47;0.93;;;7.40;99.90;;;;;;5119114;27;20549;-68
2024/03/17 08:41:17;;;;;;;0.83;0.70;;;7.40;99.90;;;;;;5130666;27;20199;-68
2024/03/17 08:43:46;;;;;;;0.80;0.77;;;7.50;99.90;;;;;;5126081;27;20671;-68
2024/03/17 08:46:13;;;;;;;0.60;0.60;;;7.50;99.90;;;;;;5116847;28;20283;-69
2024/03/17 08:48:42;;;;;;;0.67;0.60;;;7.60;99.90;;;;;;5128541;28;20622;-68
2024/03/17 08:51:10;;;;;;;0.67;0.67;;;7.50;99.90;;;;;;5115167;28;20199;-68
2024/03/17 08:53:39;;;;;;;1.83;0.53;;;7.60;99.90;;;;;;5129201;28;20554;-68
2024/03/17 08:56:07;;;;;;;1.27;0.70;;;7.60;99.90;;;;;;5122477;27;20254;-68
2024/03/17 08:58:35;;;;;;;1.40;0.60;;;7.60;99.90;;;;;;5127225;27;20189;-68
2024/03/17 09:01:07;;;;;;;0.70;0.67;;;7.50;99.70;;;;;;5124103;28;20202;-68
2024/03/17 09:03:34;;;;;;;0.70;0.70;;;7.50;99.50;;;;;;5126774;28;20201;-68
2024/03/17 09:06:01;;;;;;;1.00;0.67;;;7.40;99.50;;;;;;5131056;27;20195;-68
2024/03/17 09:08:29;;;;;;;1.13;0.70;;;7.40;99.30;;;;;;5134003;27;20238;-69
2024/03/17 09:10:56;;;;;;;1.60;0.77;;;7.40;99.10;;;;;;5132995;27;20193;-68
2024/03/17 09:13:25;;;;;;;0.70;0.60;;;7.30;98.90;;;;;;5136767;27;20226;-68
2024/03/17 09:15:54;;;;;;;0.50;0.50;;;7.30;98.70;;;;;;5126005;27;20619;-68
2024/03/17 09:18:22;;;;;;;1.17;0.57;;;7.30;98.60;;;;;;5130615;27;20199;-68
2024/03/17 09:20:57;;;;;;;0.60;0.60;;;7.30;98.60;;;;;;5135233;27;20222;-69
2024/03/17 09:23:26;;;;;;;1.40;0.60;;;7.30;98.70;;;;;;5130714;27;20236;-68
2024/03/17 09:25:58;;;;;;;1.40;0.70;;;7.30;98.10;;;;;;5136115;27;20191;-68
2024/03/17 09:28:25;;;;;;;1.00;0.83;;;7.30;98.10;;;;;;5130079;27;20245;-68
2024/03/17 09:30:52;;;;;;;0.53;0.53;;;7.30;97.50;;;;;;5116127;28;20192;-67
2024/03/17 09:33:22;;;;;;;0.60;0.60;;;7.20;97.50;;;;;;5127684;27;20646;-68
2024/03/17 09:35:56;;;;;;;0.73;0.70;;;7.20;97.40;;;;;;5134631;27;20195;-68
2024/03/17 09:38:24;;;;;;;0.70;0.70;;;7.10;97.50;;;;;;5126048;27;20201;-67
2024/03/17 09:40:52;;;;;;;0.50;0.50;;;7.10;97.70;;;;;;5136063;27;20611;-68
2024/03/17 09:43:21;;;;;;;0.73;0.50;;;7.20;97.60;;;;;;5125500;27;20592;-67
2024/03/17 09:45:48;;;;;;;0.60;0.47;;;7.10;97.30;;;;;;5121907;27;20238;-68
2024/03/17 09:48:17;;;;;;;0.50;0.50;;;7.10;97.40;;;;;;5129479;27;20265;-68
2024/03/17 09:50:52;;;;;;;0.77;0.77;;;7.10;97.40;;;;;;5129979;27;20207;-68
2024/03/17 09:53:24;;;;;;;2.00;1.20;;;7.20;97.40;;;;;;5121457;27;20196;-68
2024/03/17 09:55:53;;;;;;;3.30;1.37;;;7.20;97.20;;;;;;5132425;27;20199;-68
2024/03/17 09:58:20;;;;;;;2.63;1.40;;;7.20;96.90;;;;;;5134167;27;20217;-68
2024/03/17 10:00:47;;;;;;;1.27;1.00;;;7.20;97.00;;;;;;5134718;27;20252;-69
2024/03/17 10:03:40;;;;;;;1.00;0.80;;;7.20;97.00;;;;;;5135422;27;20684;-68
2024/03/17 10:06:11;;;;;;;1.30;0.77;;;7.20;96.80;;;;;;5135018;27;20240;-68
2024/03/17 10:08:43;;;;;;;0.67;0.67;;;7.30;96.90;;;;;;5132828;27;20286;-68
2024/03/17 10:11:11;;;;;;;0.60;0.60;;;7.70;97.00;;;;;;5134047;27;20244;-69
2024/03/17 10:13:38;;;;;;;1.07;0.80;;;7.90;96.80;;;;;;5132708;27;20207;-68
2024/03/17 10:16:05;;;;;;;0.60;0.60;;;8.00;96.50;;;;;;5135070;27;20309;-69
2024/03/17 10:18:33;;;;;;;1.63;0.80;;;8.10;96.30;;;;;;5128053;27;20232;-68
2024/03/17 10:21:01;;;;;;;0.60;0.60;;;7.90;96.10;;;;;;5131890;27;20229;-68
2024/03/17 10:23:30;;;;;;;0.60;0.60;;;7.80;96.30;;;;;;5135302;27;20251;-68
2024/03/17 10:25:57;;;;;;;1.00;0.80;;;7.70;96.50;;;;;;5125115;27;20350;-68
2024/03/17 10:28:24;;;;;;;0.70;0.70;;;7.60;96.80;;;;;;5123135;27;20276;-68
2024/03/17 10:31:01;;;;;;;0.60;0.60;;;7.60;97.00;;;;;;5133197;27;20245;-68
2024/03/17 10:33:28;;;;;;;0.60;0.60;;;7.50;97.20;;;;;;5124535;27;20596;-68
2024/03/17 10:36:02;;;;;;;0.77;0.77;;;7.50;97.30;;;;;;5133587;27;20191;-68
2024/03/17 10:38:31;;;;;;;0.67;0.60;;;7.50;97.40;;;;;;5125850;27;20195;-67
2024/03/17 10:40:58;;;;;;;0.57;0.53;;;7.60;97.30;;;;;;5130502;27;20222;-68
2024/03/17 10:43:25;;;;;;;0.60;0.60;;;7.60;97.10;;;;;;5131956;27;20249;-69
2024/03/17 10:45:54;;;;;;;1.13;0.60;;;7.70;97.30;;;;;;5128248;27;20269;-68
2024/03/17 10:48:24;;;;;;;0.67;0.67;;;7.80;97.00;;;;;;5134210;27;20386;-68
2024/03/17 10:50:57;;;;;;;0.73;0.73;;;8.00;96.40;;;;;;5129781;27;20264;-68
2024/03/17 10:53:27;;;;;;;1.93;0.80;;;8.00;96.00;;;;;;5129164;27;20184;-68
2024/03/17 10:56:06;;;;;;;0.53;0.53;;;8.00;95.20;;;;;;5126624;27;20198;-69
2024/03/17 10:58:37;;;;;;;0.57;0.57;;;7.90;95.00;;;;;;5133957;27;20734;-68
2024/03/17 11:01:05;;;;;;;0.60;0.60;;;7.90;95.00;;;;;;5134204;27;20188;-68
2024/03/17 11:03:33;;;;;;;0.63;0.57;;;8.00;94.40;;;;;;5133976;27;20191;-69
2024/03/17 11:06:03;;;;;;;0.40;0.40;;;8.00;94.30;;;;;;5129046;27;20202;-69
2024/03/17 11:08:32;;;;;;;0.60;0.60;;;7.90;94.30;;;;;;5127968;27;20645;-68
2024/03/17 11:11:01;;;;;;;1.27;0.57;;;8.10;94.50;;;;;;5126233;27;20736;-69
2024/03/17 11:13:30;;;;;;;0.60;0.60;;;9.50;94.60;;;;;;5130979;27;20228;-68
2024/03/17 11:15:58;;;;;;;0.57;0.57;;;11.30;92.20;;;;;;5128160;27;20255;-69
2024/03/17 11:18:40;;;;;;;0.60;0.60;;;11.80;90.60;;;;;;5128506;27;20178;-68
2024/03/17 11:21:20;;;;;;;0.83;0.83;;;11.70;90.20;;;;;;5118647;27;20217;-69
2024/03/17 11:23:58;;;;;;;1.60;0.80;;;11.40;90.00;;;;;;5127363;27;20196;-69
2024/03/17 11:26:31;;;;;;;0.70;0.53;;;11.00;88.90;;;;;;5118531;27;20277;-69
2024/03/17 11:29:00;;;;;;;0.83;0.83;;;10.60;89.20;;;;;;5118314;27;20189;-69
2024/03/17 11:31:41;;;;;;;0.67;0.67;;;10.50;90.20;;;;;;5128031;27;20195;-69
2024/03/17 11:34:28;;;;;;;0.80;0.70;;;10.70;90.00;;;;;;5131678;27;20190;-68
2024/03/17 11:36:54;;;;;;;0.70;0.70;;;10.70;88.50;;;;;;5133563;27;20274;-67
2024/03/17 11:39:25;;;;;;;0.50;0.50;;;10.60;88.50;;;;;;5133363;27;20210;-67
2024/03/17 11:41:53;;;;;;;0.60;0.60;;;10.60;89.30;;;;;;5131412;27;20187;-67
2024/03/17 11:44:29;;;;;;;0.73;0.73;;;10.70;87.30;;;;;;5128994;27;20675;-67
2024/03/17 11:46:56;;;;;;;0.60;0.60;;;10.50;86.90;;;;;;5131667;27;20214;-67
2024/03/17 11:49:24;;;;;;;1.17;0.80;;;10.30;86.70;;;;;;5131422;27;20518;-68
2024/03/17 11:51:52;;;;;;;0.73;0.63;;;10.00;86.10;;;;;;5125314;27;20202;-68
2024/03/17 11:54:21;;;;;;;1.60;0.73;;;9.80;87.80;;;;;;5132428;27;20197;-67
2024/03/17 11:56:49;;;;;;;1.40;0.70;;;9.60;88.50;;;;;;5133226;27;20255;-68
2024/03/17 11:59:19;;;;;;;1.90;0.70;;;9.40;89.50;;;;;;5131092;27;20203;-68
2024/03/17 12:01:47;;;;;;;0.70;0.70;;;9.20;90.40;;;;;;5131221;27;20622;-68
2024/03/17 12:04:16;;;;;;;0.60;0.60;;;9.00;90.80;;;;;;5126930;27;20197;-69
2024/03/17 12:06:45;;;;;;;1.83;0.90;;;8.80;91.30;;;;;;5127234;27;20223;-69
2024/03/17 12:09:20;;;;;;;1.07;0.70;;;8.60;91.70;;;;;;5132680;27;20186;-69
2024/03/17 12:11:48;;;;;;;1.50;0.53;;;8.50;92.20;;;;;;5127187;27;20196;-68
2024/03/17 12:14:19;;;;;;;0.60;0.60;;;8.30;92.50;;;;;;5120739;27;20191;-68
2024/03/17 12:16:51;;;;;;;0.97;0.80;;;8.20;92.90;;;;;;5125222;27;20187;-69
2024/03/17 12:19:18;;;;;;;0.63;0.63;;;7.90;93.30;;;;;;5118323;27;20643;-67
2024/03/17 12:21:46;;;;;;;0.70;0.70;;;7.90;93.80;;;;;;5132669;27;20725;-68
2024/03/17 12:24:18;;;;;;;0.60;0.60;;;7.90;94.10;;;;;;5120572;27;20693;-68
2024/03/17 12:26:46;;;;;;;0.70;0.70;;;7.90;94.20;;;;;;5132808;27;20553;-68
2024/03/17 12:29:27;;;;;;;1.30;1.13;;;7.90;94.30;;;;;;5131918;27;20253;-69
2024/03/17 12:31:55;;;;;;;0.80;0.80;;;8.00;94.20;;;;;;5118742;27;20200;-69
2024/03/17 12:34:22;;;;;;;0.70;0.70;;;8.00;94.10;;;;;;5131350;27;20191;-69
2024/03/17 12:36:50;;;;;;;0.80;0.80;;;8.00;94.00;;;;;;5124611;27;20269;-69
2024/03/17 12:39:18;;;;;;;0.70;0.70;;;8.10;93.70;;;;;;5123939;27;20244;-69
2024/03/17 12:41:46;;;;;;;1.00;0.50;;;8.10;93.60;;;;;;5128094;27;20190;-69
2024/03/17 12:44:23;;;;;;;0.87;0.70;;;8.10;93.10;;;;;;5132610;27;20658;-68
2024/03/17 12:46:56;;;;;;;0.40;0.40;;;8.00;93.10;;;;;;5125601;28;20214;-69
2024/03/17 12:49:25;;;;;;;1.20;0.70;;;8.00;93.00;;;;;;5130468;28;20655;-69
2024/03/17 12:51:52;;;;;;;2.57;0.87;;;8.00;93.00;;;;;;5128475;28;20191;-69
2024/03/17 12:54:21;;;;;;;0.70;0.70;;;7.90;92.70;;;;;;5125724;28;20190;-69
2024/03/17 13:02:27;;;;;;;1.07;0.73;;;7.60;92.90;;;;;;5126829;28;20207;-69
2024/03/17 13:05:17;;;;;;;0.77;0.77;;;7.60;93.10;;;;;;5130613;27;20286;-69
2024/03/17 13:07:46;;;;;;;0.60;0.60;;;7.50;93.00;;;;;;5120296;28;20252;-69
2024/03/17 13:10:14;;;;;;;0.77;0.67;;;7.60;93.20;;;;;;5129902;28;20542;-69